To NAV CANADA Home Page Login to a new session Search on AWWS site Feedback and Comments Disclaimer Vers la page française équivalente Tips FAQ What's new on the site To the Forecasts and Observations / NOTAM section To "File a Flight Plan" website Publications and other links Update of the User's profile FIC Telephone Numbers My Weather Data Folder Route Weather Data Regional Weather Data Local Weather Data To the Forecasts and Observations / NOTAM section
Request Generated 05/26/2016 at 20:14:36 UTC . Weather information available at that time is displayed.

METAR/TAF

GANDER/GANDER INTL/NL    

METAR CYQX 262000Z 01011G16KT 1/2SM R03/P6000FT/N R13/5500VP6000FT/D
-DZ FG VV001 04/04 A3005 RMK FG8 SLP182=
SPECI CYQX 261954Z 35012KT 1/2SM R03/P6000FT/N R13/5500VP6000FT/D -DZ
FG VV001 04/03 A3005 RMK FG8 SLP182=
SPECI CYQX 261947Z 01013KT 1 1/4SM -DZ BR OVC002 04/03 A3004 RMK
FG5SF3 SLP181=
SPECI CYQX 261937Z 01014KT 2SM -DZ BR OVC003 04/03 A3004 RMK FG3SF5
VIS SW-W 4 SLP181=
SPECI CYQX 261926Z 35013KT 4SM -DZ BR OVC004 04/03 A3004 RMK SF8 VIS
LWR NE-E 2 SLP180=
METAR CYQX 261900Z 36015KT 3SM -DZ BR BKN006 OVC012 05/04 A3003 RMK
SF6SC2 VIS LWR NE-E VIS HIER SW-W SLP178=
METAR CYQX 261800Z 01015KT 6SM -DZ BR BKN006 OVC017 05/04 A3002 RMK
SF7SC1 SLP174=

TAF AMD CYQX 262005Z 2620/2718 01010G20KT 1/2SM -DZ FG VV001 TEMPO
2620/2624 4SM -RA BR OVC004
BECMG 2622/2624 03012G22KT
FM270000 03012G22KT 1/2SM -DZ FG VV001
FM270600 02012KT 6SM BR BKN005 OVC010
FM271100 03010KT P6SM BKN015
FM271400 03010KT P6SM BKN030
RMK NXT FCST BY 270000Z=
Your time UTC time
Weather data provided by Environment Canada and NAV CANADA